sensor_id;sensor_type;location;lat;lon;timestamp;P1;durP1;ratioP1;P2;durP2;ratioP2
6823;SDS011;58633;49.470;11.004;2023-04-21T00:01:48;23.90;;;15.48;;
6823;SDS011;58633;49.470;11.004;2023-04-21T00:04:14;22.02;;;14.00;;
6823;SDS011;58633;49.470;11.004;2023-04-21T00:06:41;22.30;;;14.15;;
6823;SDS011;58633;49.470;11.004;2023-04-21T00:09:08;24.05;;;16.33;;
6823;SDS011;58633;49.470;11.004;2023-04-21T00:11:36;22.45;;;15.68;;
6823;SDS011;58633;49.470;11.004;2023-04-21T00:14:01;24.13;;;15.33;;
6823;SDS011;58633;49.470;11.004;2023-04-21T00:16:27;20.80;;;14.30;;
6823;SDS011;58633;49.470;11.004;2023-04-21T00:18:53;24.77;;;15.32;;
6823;SDS011;58633;49.470;11.004;2023-04-21T00:21:18;23.50;;;14.20;;
6823;SDS011;58633;49.470;11.004;2023-04-21T00:23:44;22.85;;;14.90;;
6823;SDS011;58633;49.470;11.004;2023-04-21T00:26:11;24.08;;;15.57;;
6823;SDS011;58633;49.470;11.004;2023-04-21T00:28:37;22.38;;;14.43;;
6823;SDS011;58633;49.470;11.004;2023-04-21T00:31:02;24.85;;;15.38;;
6823;SDS011;58633;49.470;11.004;2023-04-21T00:33:28;24.05;;;15.35;;
6823;SDS011;58633;49.470;11.004;2023-04-21T00:35:53;24.58;;;15.93;;
6823;SDS011;58633;49.470;11.004;2023-04-21T00:38:20;26.00;;;16.93;;
6823;SDS011;58633;49.470;11.004;2023-04-21T00:40:46;24.80;;;15.30;;
6823;SDS011;58633;49.470;11.004;2023-04-21T00:43:12;26.48;;;15.48;;
6823;SDS011;58633;49.470;11.004;2023-04-21T00:45:37;21.85;;;14.73;;
6823;SDS011;58633;49.470;11.004;2023-04-21T00:48:03;24.33;;;15.43;;
6823;SDS011;58633;49.470;11.004;2023-04-21T00:50:29;21.00;;;14.17;;
6823;SDS011;58633;49.470;11.004;2023-04-21T00:52:55;24.00;;;15.20;;
6823;SDS011;58633;49.470;11.004;2023-04-21T00:55:21;21.17;;;14.57;;
6823;SDS011;58633;49.470;11.004;2023-04-21T00:57:47;22.57;;;14.73;;
6823;SDS011;58633;49.470;11.004;2023-04-21T01:00:13;25.57;;;14.23;;
6823;SDS011;58633;49.470;11.004;2023-04-21T01:02:40;20.60;;;14.33;;
6823;SDS011;58633;49.470;11.004;2023-04-21T01:05:06;23.80;;;14.33;;
6823;SDS011;58633;49.470;11.004;2023-04-21T01:07:32;24.33;;;14.93;;
6823;SDS011;58633;49.470;11.004;2023-04-21T01:09:58;23.43;;;15.03;;
6823;SDS011;58633;49.470;11.004;2023-04-21T01:12:24;23.60;;;14.53;;
6823;SDS011;58633;49.470;11.004;2023-04-21T01:14:50;23.10;;;14.60;;
6823;SDS011;58633;49.470;11.004;2023-04-21T01:17:15;23.03;;;14.43;;
6823;SDS011;58633;49.470;11.004;2023-04-21T01:19:43;23.07;;;14.93;;
6823;SDS011;58633;49.470;11.004;2023-04-21T01:22:09;22.70;;;14.20;;
6823;SDS011;58633;49.470;11.004;2023-04-21T01:27:01;24.63;;;15.00;;
6823;SDS011;58633;49.470;11.004;2023-04-21T01:29:30;25.03;;;14.47;;
6823;SDS011;58633;49.470;11.004;2023-04-21T01:31:57;23.53;;;15.17;;
6823;SDS011;58633;49.470;11.004;2023-04-21T01:34:22;24.53;;;15.90;;
6823;SDS011;58633;49.470;11.004;2023-04-21T01:36:48;24.40;;;15.13;;
6823;SDS011;58633;49.470;11.004;2023-04-21T01:39:13;23.23;;;15.47;;
6823;SDS011;58633;49.470;11.004;2023-04-21T01:41:39;23.10;;;14.77;;
6823;SDS011;58633;49.470;11.004;2023-04-21T01:44:05;25.03;;;15.50;;
6823;SDS011;58633;49.470;11.004;2023-04-21T01:46:31;23.43;;;15.63;;
6823;SDS011;58633;49.470;11.004;2023-04-21T01:48:57;24.87;;;15.63;;
6823;SDS011;58633;49.470;11.004;2023-04-21T01:51:22;24.57;;;15.30;;
6823;SDS011;58633;49.470;11.004;2023-04-21T01:53:48;24.10;;;15.23;;
6823;SDS011;58633;49.470;11.004;2023-04-21T01:56:13;25.43;;;15.17;;
6823;SDS011;58633;49.470;11.004;2023-04-21T01:58:40;27.27;;;16.00;;
6823;SDS011;58633;49.470;11.004;2023-04-21T02:01:05;25.97;;;15.77;;
6823;SDS011;58633;49.470;11.004;2023-04-21T02:03:31;22.43;;;14.77;;
6823;SDS011;58633;49.470;11.004;2023-04-21T02:05:57;22.73;;;14.77;;
6823;SDS011;58633;49.470;11.004;2023-04-21T02:08:23;22.23;;;14.73;;
6823;SDS011;58633;49.470;11.004;2023-04-21T02:10:48;21.43;;;14.47;;
6823;SDS011;58633;49.470;11.004;2023-04-21T02:13:14;22.13;;;14.97;;
6823;SDS011;58633;49.470;11.004;2023-04-21T02:15:39;22.57;;;14.83;;
6823;SDS011;58633;49.470;11.004;2023-04-21T02:18:05;22.30;;;14.53;;
6823;SDS011;58633;49.470;11.004;2023-04-21T02:20:32;24.67;;;15.10;;
6823;SDS011;58633;49.470;11.004;2023-04-21T02:22:57;25.93;;;15.03;;
6823;SDS011;58633;49.470;11.004;2023-04-21T02:25:23;24.47;;;14.60;;
6823;SDS011;58633;49.470;11.004;2023-04-21T02:27:49;23.53;;;14.53;;
6823;SDS011;58633;49.470;11.004;2023-04-21T02:30:15;23.63;;;14.47;;
6823;SDS011;58633;49.470;11.004;2023-04-21T02:32:40;23.03;;;14.50;;
6823;SDS011;58633;49.470;11.004;2023-04-21T02:35:06;23.53;;;14.60;;
6823;SDS011;58633;49.470;11.004;2023-04-21T02:37:33;26.07;;;15.20;;
6823;SDS011;58633;49.470;11.004;2023-04-21T02:39:58;20.63;;;14.00;;
6823;SDS011;58633;49.470;11.004;2023-04-21T02:42:24;22.10;;;14.57;;
6823;SDS011;58633;49.470;11.004;2023-04-21T02:44:49;25.53;;;14.80;;
6823;SDS011;58633;49.470;11.004;2023-04-21T02:47:15;23.27;;;14.73;;
6823;SDS011;58633;49.470;11.004;2023-04-21T02:49:41;22.90;;;14.27;;
6823;SDS011;58633;49.470;11.004;2023-04-21T02:52:06;22.77;;;14.60;;
6823;SDS011;58633;49.470;11.004;2023-04-21T02:54:32;22.67;;;14.17;;
6823;SDS011;58633;49.470;11.004;2023-04-21T02:56:58;21.80;;;13.97;;
6823;SDS011;58633;49.470;11.004;2023-04-21T02:59:23;24.57;;;14.47;;
6823;SDS011;58633;49.470;11.004;2023-04-21T03:01:49;21.90;;;13.70;;
6823;SDS011;58633;49.470;11.004;2023-04-21T03:04:14;22.63;;;14.20;;
6823;SDS011;58633;49.470;11.004;2023-04-21T03:06:40;22.90;;;13.93;;
6823;SDS011;58633;49.470;11.004;2023-04-21T03:09:06;22.27;;;14.30;;
6823;SDS011;58633;49.470;11.004;2023-04-21T03:11:31;24.40;;;14.67;;
6823;SDS011;58633;49.470;11.004;2023-04-21T03:13:57;20.43;;;13.80;;
6823;SDS011;58633;49.470;11.004;2023-04-21T03:16:22;21.53;;;14.07;;
6823;SDS011;58633;49.470;11.004;2023-04-21T03:18:48;21.33;;;14.03;;
6823;SDS011;58633;49.470;11.004;2023-04-21T03:21:14;22.57;;;14.10;;
6823;SDS011;58633;49.470;11.004;2023-04-21T03:23:39;22.23;;;14.03;;
6823;SDS011;58633;49.470;11.004;2023-04-21T03:26:06;23.27;;;14.27;;
6823;SDS011;58633;49.470;11.004;2023-04-21T03:28:32;20.30;;;13.67;;
6823;SDS011;58633;49.470;11.004;2023-04-21T03:30:57;22.37;;;14.23;;
6823;SDS011;58633;49.470;11.004;2023-04-21T03:33:23;22.63;;;14.17;;
6823;SDS011;58633;49.470;11.004;2023-04-21T03:35:48;20.53;;;13.73;;
6823;SDS011;58633;49.470;11.004;2023-04-21T03:38:14;22.70;;;13.67;;
6823;SDS011;58633;49.470;11.004;2023-04-21T03:40:39;21.67;;;14.10;;
6823;SDS011;58633;49.470;11.004;2023-04-21T03:43:05;23.77;;;14.00;;
6823;SDS011;58633;49.470;11.004;2023-04-21T03:45:30;21.60;;;14.00;;
6823;SDS011;58633;49.470;11.004;2023-04-21T03:47:56;21.63;;;14.07;;
6823;SDS011;58633;49.470;11.004;2023-04-21T03:50:22;21.90;;;14.07;;
6823;SDS011;58633;49.470;11.004;2023-04-21T03:52:47;23.63;;;14.73;;
6823;SDS011;58633;49.470;11.004;2023-04-21T03:55:13;23.50;;;14.27;;
6823;SDS011;58633;49.470;11.004;2023-04-21T03:57:39;24.07;;;15.10;;
6823;SDS011;58633;49.470;11.004;2023-04-21T04:00:06;22.47;;;14.63;;
6823;SDS011;58633;49.470;11.004;2023-04-21T04:02:34;22.13;;;14.03;;
6823;SDS011;58633;49.470;11.004;2023-04-21T04:05:00;22.53;;;13.97;;
6823;SDS011;58633;49.470;11.004;2023-04-21T04:07:25;21.43;;;13.83;;
6823;SDS011;58633;49.470;11.004;2023-04-21T04:09:51;24.37;;;14.70;;
6823;SDS011;58633;49.470;11.004;2023-04-21T04:12:16;21.90;;;14.10;;
6823;SDS011;58633;49.470;11.004;2023-04-21T04:14:42;23.57;;;15.10;;
6823;SDS011;58633;49.470;11.004;2023-04-21T04:17:07;22.70;;;14.80;;
6823;SDS011;58633;49.470;11.004;2023-04-21T04:19:33;23.40;;;14.30;;
6823;SDS011;58633;49.470;11.004;2023-04-21T04:21:59;21.80;;;14.20;;
6823;SDS011;58633;49.470;11.004;2023-04-21T04:24:25;21.37;;;13.63;;
6823;SDS011;58633;49.470;11.004;2023-04-21T04:26:51;20.27;;;13.63;;
6823;SDS011;58633;49.470;11.004;2023-04-21T04:29:18;23.47;;;14.23;;
6823;SDS011;58633;49.470;11.004;2023-04-21T04:31:45;22.87;;;14.27;;
6823;SDS011;58633;49.470;11.004;2023-04-21T04:34:11;20.97;;;13.87;;
6823;SDS011;58633;49.470;11.004;2023-04-21T04:36:37;23.33;;;13.40;;
6823;SDS011;58633;49.470;11.004;2023-04-21T04:39:02;23.10;;;13.47;;
6823;SDS011;58633;49.470;11.004;2023-04-21T04:41:28;22.57;;;14.30;;
6823;SDS011;58633;49.470;11.004;2023-04-21T04:43:54;20.33;;;13.43;;
6823;SDS011;58633;49.470;11.004;2023-04-21T04:46:23;23.47;;;14.23;;
6823;SDS011;58633;49.470;11.004;2023-04-21T04:48:49;26.23;;;14.53;;
6823;SDS011;58633;49.470;11.004;2023-04-21T04:51:15;24.20;;;14.77;;
6823;SDS011;58633;49.470;11.004;2023-04-21T04:53:41;22.90;;;14.50;;
6823;SDS011;58633;49.470;11.004;2023-04-21T04:56:06;24.73;;;14.40;;
6823;SDS011;58633;49.470;11.004;2023-04-21T04:58:32;21.43;;;13.50;;
6823;SDS011;58633;49.470;11.004;2023-04-21T05:00:58;20.50;;;13.90;;
6823;SDS011;58633;49.470;11.004;2023-04-21T05:03:37;24.53;;;14.50;;
6823;SDS011;58633;49.470;11.004;2023-04-21T05:06:03;28.27;;;14.90;;
6823;SDS011;58633;49.470;11.004;2023-04-21T05:08:29;25.47;;;13.67;;
6823;SDS011;58633;49.470;11.004;2023-04-21T05:10:54;23.20;;;14.40;;
6823;SDS011;58633;49.470;11.004;2023-04-21T05:13:20;22.63;;;15.03;;
6823;SDS011;58633;49.470;11.004;2023-04-21T05:15:45;24.10;;;14.27;;
6823;SDS011;58633;49.470;11.004;2023-04-21T05:18:11;25.57;;;15.17;;
6823;SDS011;58633;49.470;11.004;2023-04-21T05:20:39;24.37;;;14.77;;
6823;SDS011;58633;49.470;11.004;2023-04-21T05:23:05;24.83;;;15.03;;
6823;SDS011;58633;49.470;11.004;2023-04-21T05:25:31;20.63;;;14.20;;
6823;SDS011;58633;49.470;11.004;2023-04-21T05:27:57;21.47;;;14.17;;
6823;SDS011;58633;49.470;11.004;2023-04-21T05:30:22;22.03;;;14.10;;
6823;SDS011;58633;49.470;11.004;2023-04-21T05:32:48;24.83;;;14.27;;
6823;SDS011;58633;49.470;11.004;2023-04-21T05:35:13;24.20;;;14.37;;
6823;SDS011;58633;49.470;11.004;2023-04-21T05:37:39;27.60;;;14.80;;
6823;SDS011;58633;49.470;11.004;2023-04-21T05:40:04;26.10;;;15.73;;
6823;SDS011;58633;49.470;11.004;2023-04-21T05:42:30;26.70;;;14.77;;
6823;SDS011;58633;49.470;11.004;2023-04-21T05:44:56;22.47;;;14.70;;
6823;SDS011;58633;49.470;11.004;2023-04-21T05:47:22;26.00;;;15.10;;
6823;SDS011;58633;49.470;11.004;2023-04-21T05:49:50;23.00;;;14.73;;
6823;SDS011;58633;49.470;11.004;2023-04-21T05:52:17;26.03;;;14.93;;
6823;SDS011;58633;49.470;11.004;2023-04-21T05:54:43;26.50;;;15.37;;
6823;SDS011;58633;49.470;11.004;2023-04-21T05:57:09;23.33;;;14.17;;
6823;SDS011;58633;49.470;11.004;2023-04-21T05:59:34;25.90;;;14.53;;
6823;SDS011;58633;49.470;11.004;2023-04-21T06:02:00;23.63;;;13.97;;
6823;SDS011;58633;49.470;11.004;2023-04-21T06:04:27;21.33;;;13.87;;
6823;SDS011;58633;49.470;11.004;2023-04-21T06:06:53;25.73;;;15.33;;
6823;SDS011;58633;49.470;11.004;2023-04-21T06:09:19;26.67;;;15.50;;
6823;SDS011;58633;49.470;11.004;2023-04-21T06:11:44;27.97;;;15.00;;
6823;SDS011;58633;49.470;11.004;2023-04-21T06:14:10;26.50;;;15.73;;
6823;SDS011;58633;49.470;11.004;2023-04-21T06:16:36;26.07;;;14.73;;
6823;SDS011;58633;49.470;11.004;2023-04-21T06:19:01;23.20;;;14.57;;
6823;SDS011;58633;49.470;11.004;2023-04-21T06:21:27;25.60;;;14.83;;
6823;SDS011;58633;49.470;11.004;2023-04-21T06:23:53;23.00;;;14.53;;
6823;SDS011;58633;49.470;11.004;2023-04-21T06:26:18;25.93;;;15.50;;
6823;SDS011;58633;49.470;11.004;2023-04-21T06:28:44;23.27;;;14.37;;
6823;SDS011;58633;49.470;11.004;2023-04-21T06:31:10;22.40;;;14.83;;
6823;SDS011;58633;49.470;11.004;2023-04-21T06:33:39;23.70;;;14.83;;
6823;SDS011;58633;49.470;11.004;2023-04-21T06:36:05;24.23;;;15.57;;
6823;SDS011;58633;49.470;11.004;2023-04-21T06:38:31;21.90;;;14.70;;
6823;SDS011;58633;49.470;11.004;2023-04-21T06:40:57;22.67;;;14.53;;
6823;SDS011;58633;49.470;11.004;2023-04-21T06:43:22;21.57;;;14.43;;
6823;SDS011;58633;49.470;11.004;2023-04-21T06:45:48;21.83;;;14.00;;
6823;SDS011;58633;49.470;11.004;2023-04-21T06:48:13;19.83;;;13.50;;
6823;SDS011;58633;49.470;11.004;2023-04-21T06:50:39;23.17;;;14.57;;
6823;SDS011;58633;49.470;11.004;2023-04-21T06:53:05;22.87;;;14.20;;
6823;SDS011;58633;49.470;11.004;2023-04-21T06:55:30;21.63;;;13.40;;
6823;SDS011;58633;49.470;11.004;2023-04-21T06:57:56;20.17;;;13.52;;
6823;SDS011;58633;49.470;11.004;2023-04-21T07:00:22;20.58;;;13.57;;
6823;SDS011;58633;49.470;11.004;2023-04-21T07:02:48;20.63;;;13.32;;
6823;SDS011;58633;49.470;11.004;2023-04-21T07:05:13;20.65;;;13.20;;
6823;SDS011;58633;49.470;11.004;2023-04-21T07:07:39;19.48;;;12.85;;
6823;SDS011;58633;49.470;11.004;2023-04-21T07:10:04;20.33;;;13.50;;
6823;SDS011;58633;49.470;11.004;2023-04-21T07:12:31;21.52;;;13.65;;
6823;SDS011;58633;49.470;11.004;2023-04-21T07:14:56;15.98;;;12.02;;
6823;SDS011;58633;49.470;11.004;2023-04-21T07:17:22;18.52;;;11.57;;
6823;SDS011;58633;49.470;11.004;2023-04-21T07:19:47;17.40;;;11.65;;
6823;SDS011;58633;49.470;11.004;2023-04-21T07:22:12;18.48;;;11.55;;
6823;SDS011;58633;49.470;11.004;2023-04-21T07:24:38;17.13;;;11.48;;
6823;SDS011;58633;49.470;11.004;2023-04-21T07:27:04;19.92;;;11.40;;
6823;SDS011;58633;49.470;11.004;2023-04-21T07:29:29;20.13;;;11.73;;
6823;SDS011;58633;49.470;11.004;2023-04-21T07:31:55;17.73;;;11.20;;
6823;SDS011;58633;49.470;11.004;2023-04-21T07:34:22;17.85;;;11.40;;
6823;SDS011;58633;49.470;11.004;2023-04-21T07:36:49;20.63;;;10.68;;
6823;SDS011;58633;49.470;11.004;2023-04-21T07:39:16;18.60;;;10.50;;
6823;SDS011;58633;49.470;11.004;2023-04-21T07:41:41;15.10;;;9.77;;
6823;SDS011;58633;49.470;11.004;2023-04-21T07:44:07;17.42;;;10.57;;
6823;SDS011;58633;49.470;11.004;2023-04-21T07:46:32;15.68;;;10.10;;
6823;SDS011;58633;49.470;11.004;2023-04-21T07:48:58;15.60;;;9.60;;
6823;SDS011;58633;49.470;11.004;2023-04-21T07:51:25;15.38;;;9.70;;
6823;SDS011;58633;49.470;11.004;2023-04-21T07:53:51;16.42;;;9.77;;
6823;SDS011;58633;49.470;11.004;2023-04-21T07:56:17;14.52;;;9.27;;
6823;SDS011;58633;49.470;11.004;2023-04-21T07:58:43;14.25;;;10.60;;
6823;SDS011;58633;49.470;11.004;2023-04-21T08:01:09;15.82;;;10.45;;
6823;SDS011;58633;49.470;11.004;2023-04-21T08:03:34;16.10;;;10.80;;
6823;SDS011;58633;49.470;11.004;2023-04-21T08:06:00;13.98;;;10.07;;
6823;SDS011;58633;49.470;11.004;2023-04-21T08:08:26;19.38;;;11.10;;
6823;SDS011;58633;49.470;11.004;2023-04-21T08:10:52;18.88;;;9.88;;
6823;SDS011;58633;49.470;11.004;2023-04-21T08:13:18;13.45;;;9.45;;
6823;SDS011;58633;49.470;11.004;2023-04-21T08:15:45;15.43;;;10.15;;
6823;SDS011;58633;49.470;11.004;2023-04-21T08:18:11;14.20;;;10.18;;
6823;SDS011;58633;49.470;11.004;2023-04-21T08:20:36;15.13;;;10.05;;
6823;SDS011;58633;49.470;11.004;2023-04-21T08:23:02;14.95;;;10.70;;
6823;SDS011;58633;49.470;11.004;2023-04-21T08:25:28;13.98;;;9.80;;
6823;SDS011;58633;49.470;11.004;2023-04-21T08:27:54;11.98;;;8.48;;
6823;SDS011;58633;49.470;11.004;2023-04-21T08:30:20;12.48;;;7.43;;
6823;SDS011;58633;49.470;11.004;2023-04-21T08:32:46;10.05;;;7.63;;
6823;SDS011;58633;49.470;11.004;2023-04-21T08:35:12;12.63;;;8.07;;
6823;SDS011;58633;49.470;11.004;2023-04-21T08:37:38;13.02;;;7.40;;
6823;SDS011;58633;49.470;11.004;2023-04-21T08:40:04;11.35;;;7.43;;
6823;SDS011;58633;49.470;11.004;2023-04-21T08:42:31;8.30;;;6.80;;
6823;SDS011;58633;49.470;11.004;2023-04-21T08:44:57;9.40;;;6.70;;
6823;SDS011;58633;49.470;11.004;2023-04-21T08:47:23;9.88;;;6.60;;
6823;SDS011;58633;49.470;11.004;2023-04-21T08:49:50;10.25;;;6.90;;
6823;SDS011;58633;49.470;11.004;2023-04-21T08:52:18;9.52;;;7.07;;
6823;SDS011;58633;49.470;11.004;2023-04-21T08:54:44;18.42;;;7.90;;
6823;SDS011;58633;49.470;11.004;2023-04-21T08:57:11;9.98;;;7.35;;
6823;SDS011;58633;49.470;11.004;2023-04-21T08:59:36;10.10;;;7.57;;
6823;SDS011;58633;49.470;11.004;2023-04-21T09:02:15;13.45;;;7.18;;
6823;SDS011;58633;49.470;11.004;2023-04-21T09:04:46;20.92;;;7.30;;
6823;SDS011;58633;49.470;11.004;2023-04-21T09:07:28;11.25;;;6.57;;
6823;SDS011;58633;49.470;11.004;2023-04-21T09:09:57;8.88;;;7.38;;
6823;SDS011;58633;49.470;11.004;2023-04-21T09:12:27;12.40;;;6.55;;
6823;SDS011;58633;49.470;11.004;2023-04-21T09:14:56;20.33;;;7.20;;
6823;SDS011;58633;49.470;11.004;2023-04-21T09:17:29;23.20;;;7.70;;
6823;SDS011;58633;49.470;11.004;2023-04-21T09:20:16;35.75;;;7.00;;
6823;SDS011;58633;49.470;11.004;2023-04-21T09:22:42;23.02;;;6.43;;
6823;SDS011;58633;49.470;11.004;2023-04-21T09:25:09;12.68;;;6.15;;
6823;SDS011;58633;49.470;11.004;2023-04-21T09:27:42;10.77;;;6.53;;
6823;SDS011;58633;49.470;11.004;2023-04-21T09:30:08;13.18;;;7.60;;
6823;SDS011;58633;49.470;11.004;2023-04-21T09:32:35;12.25;;;6.40;;
6823;SDS011;58633;49.470;11.004;2023-04-21T09:35:05;10.30;;;6.28;;
6823;SDS011;58633;49.470;11.004;2023-04-21T09:37:34;8.57;;;5.85;;
6823;SDS011;58633;49.470;11.004;2023-04-21T09:40:00;8.98;;;5.60;;
6823;SDS011;58633;49.470;11.004;2023-04-21T09:42:29;11.80;;;6.22;;
6823;SDS011;58633;49.470;11.004;2023-04-21T09:44:56;7.38;;;4.72;;
6823;SDS011;58633;49.470;11.004;2023-04-21T09:47:22;8.82;;;5.90;;
6823;SDS011;58633;49.470;11.004;2023-04-21T09:49:51;6.97;;;5.40;;
6823;SDS011;58633;49.470;11.004;2023-04-21T09:52:20;6.40;;;5.10;;
6823;SDS011;58633;49.470;11.004;2023-04-21T09:54:48;9.80;;;5.93;;
6823;SDS011;58633;49.470;11.004;2023-04-21T09:57:18;8.18;;;5.75;;
6823;SDS011;58633;49.470;11.004;2023-04-21T09:59:47;6.90;;;5.13;;
6823;SDS011;58633;49.470;11.004;2023-04-21T10:02:20;6.05;;;5.13;;
6823;SDS011;58633;49.470;11.004;2023-04-21T10:04:50;7.00;;;4.80;;
6823;SDS011;58633;49.470;11.004;2023-04-21T10:07:16;7.35;;;5.22;;
6823;SDS011;58633;49.470;11.004;2023-04-21T10:09:44;7.63;;;5.20;;
6823;SDS011;58633;49.470;11.004;2023-04-21T10:12:13;6.35;;;5.15;;
6823;SDS011;58633;49.470;11.004;2023-04-21T10:14:39;5.65;;;5.00;;
6823;SDS011;58633;49.470;11.004;2023-04-21T10:17:07;10.55;;;4.47;;
6823;SDS011;58633;49.470;11.004;2023-04-21T10:19:34;5.50;;;4.43;;
6823;SDS011;58633;49.470;11.004;2023-04-21T10:22:05;6.05;;;4.78;;
6823;SDS011;58633;49.470;11.004;2023-04-21T10:24:35;5.68;;;4.88;;
6823;SDS011;58633;49.470;11.004;2023-04-21T10:27:05;7.25;;;5.20;;
6823;SDS011;58633;49.470;11.004;2023-04-21T10:29:36;5.55;;;4.95;;
6823;SDS011;58633;49.470;11.004;2023-04-21T10:32:02;5.55;;;4.82;;
6823;SDS011;58633;49.470;11.004;2023-04-21T10:34:35;5.45;;;4.57;;
6823;SDS011;58633;49.470;11.004;2023-04-21T10:39:29;5.00;;;4.20;;
6823;SDS011;58633;49.470;11.004;2023-04-21T10:42:16;5.05;;;3.88;;
6823;SDS011;58633;49.470;11.004;2023-04-21T10:44:59;4.05;;;3.65;;
6823;SDS011;58633;49.470;11.004;2023-04-21T10:50:19;5.00;;;3.90;;
6823;SDS011;58633;49.470;11.004;2023-04-21T10:52:50;5.13;;;3.80;;
6823;SDS011;58633;49.470;11.004;2023-04-21T10:55:18;5.60;;;3.75;;
6823;SDS011;58633;49.470;11.004;2023-04-21T10:57:46;4.13;;;3.58;;
6823;SDS011;58633;49.470;11.004;2023-04-21T11:00:19;5.10;;;3.85;;
6823;SDS011;58633;49.470;11.004;2023-04-21T11:03:20;4.43;;;3.63;;
6823;SDS011;58633;49.470;11.004;2023-04-21T11:05:40;3.97;;;3.67;;
6823;SDS011;58633;49.470;11.004;2023-04-21T11:08:07;3.83;;;3.53;;
6823;SDS011;58633;49.470;11.004;2023-04-21T11:13:07;5.82;;;4.00;;
6823;SDS011;58633;49.470;11.004;2023-04-21T11:15:34;6.38;;;3.92;;
6823;SDS011;58633;49.470;11.004;2023-04-21T11:17:59;3.72;;;3.42;;
6823;SDS011;58633;49.470;11.004;2023-04-21T11:20:25;4.07;;;3.67;;
6823;SDS011;58633;49.470;11.004;2023-04-21T11:22:51;3.80;;;3.40;;
6823;SDS011;58633;49.470;11.004;2023-04-21T11:25:19;3.58;;;3.28;;
6823;SDS011;58633;49.470;11.004;2023-04-21T11:27:55;4.20;;;3.78;;
6823;SDS011;58633;49.470;11.004;2023-04-21T11:30:33;5.45;;;3.50;;
6823;SDS011;58633;49.470;11.004;2023-04-21T11:32:59;3.92;;;3.53;;
6823;SDS011;58633;49.470;11.004;2023-04-21T11:35:26;4.35;;;3.30;;
6823;SDS011;58633;49.470;11.004;2023-04-21T11:37:51;5.95;;;3.55;;
6823;SDS011;58633;49.470;11.004;2023-04-21T11:40:17;3.55;;;3.15;;
6823;SDS011;58633;49.470;11.004;2023-04-21T11:42:43;3.65;;;3.35;;
6823;SDS011;58633;49.470;11.004;2023-04-21T11:45:15;4.35;;;3.65;;
6823;SDS011;58633;49.470;11.004;2023-04-21T11:47:41;4.13;;;3.65;;
6823;SDS011;58633;49.470;11.004;2023-04-21T11:50:06;4.30;;;3.90;;
6823;SDS011;58633;49.470;11.004;2023-04-21T11:52:33;7.40;;;4.15;;
6823;SDS011;58633;49.470;11.004;2023-04-21T11:55:09;13.95;;;5.43;;
6823;SDS011;58633;49.470;11.004;2023-04-21T11:57:38;3.85;;;3.53;;
6823;SDS011;58633;49.470;11.004;2023-04-21T12:00:04;8.00;;;4.22;;
6823;SDS011;58633;49.470;11.004;2023-04-21T12:02:33;6.07;;;4.07;;
6823;SDS011;58633;49.470;11.004;2023-04-21T12:05:02;4.53;;;3.65;;
6823;SDS011;58633;49.470;11.004;2023-04-21T12:07:30;4.68;;;3.70;;
6823;SDS011;58633;49.470;11.004;2023-04-21T12:09:56;3.45;;;3.20;;
6823;SDS011;58633;49.470;11.004;2023-04-21T12:12:22;4.43;;;3.40;;
6823;SDS011;58633;49.470;11.004;2023-04-21T12:14:49;3.80;;;3.40;;
6823;SDS011;58633;49.470;11.004;2023-04-21T12:17:15;4.55;;;3.25;;
6823;SDS011;58633;49.470;11.004;2023-04-21T12:19:41;3.47;;;3.17;;
6823;SDS011;58633;49.470;11.004;2023-04-21T12:22:08;4.43;;;3.15;;
6823;SDS011;58633;49.470;11.004;2023-04-21T12:24:38;3.35;;;3.05;;
6823;SDS011;58633;49.470;11.004;2023-04-21T12:27:05;6.40;;;3.15;;
6823;SDS011;58633;49.470;11.004;2023-04-21T12:29:31;2.63;;;2.42;;
6823;SDS011;58633;49.470;11.004;2023-04-21T12:31:59;2.72;;;2.53;;
6823;SDS011;58633;49.470;11.004;2023-04-21T12:34:25;3.05;;;2.85;;
6823;SDS011;58633;49.470;11.004;2023-04-21T12:36:51;3.28;;;2.47;;
6823;SDS011;58633;49.470;11.004;2023-04-21T12:39:16;3.00;;;2.70;;
6823;SDS011;58633;49.470;11.004;2023-04-21T12:41:43;2.67;;;2.47;;
6823;SDS011;58633;49.470;11.004;2023-04-21T12:44:09;2.95;;;2.63;;
6823;SDS011;58633;49.470;11.004;2023-04-21T12:46:35;2.67;;;2.47;;
6823;SDS011;58633;49.470;11.004;2023-04-21T12:49:00;3.22;;;2.92;;
6823;SDS011;58633;49.470;11.004;2023-04-21T12:51:27;2.28;;;2.13;;
6823;SDS011;58633;49.470;11.004;2023-04-21T12:53:53;2.45;;;2.25;;
6823;SDS011;58633;49.470;11.004;2023-04-21T12:56:18;3.75;;;2.38;;
6823;SDS011;58633;49.470;11.004;2023-04-21T12:58:44;2.55;;;2.35;;
6823;SDS011;58633;49.470;11.004;2023-04-21T13:01:09;4.25;;;2.15;;
6823;SDS011;58633;49.470;11.004;2023-04-21T13:03:38;4.38;;;2.50;;
6823;SDS011;58633;49.470;11.004;2023-04-21T13:06:04;2.50;;;2.40;;
6823;SDS011;58633;49.470;11.004;2023-04-21T13:08:30;3.17;;;2.58;;
6823;SDS011;58633;49.470;11.004;2023-04-21T13:10:55;2.50;;;2.28;;
6823;SDS011;58633;49.470;11.004;2023-04-21T13:13:21;4.03;;;2.42;;
6823;SDS011;58633;49.470;11.004;2023-04-21T13:15:47;2.40;;;2.20;;
6823;SDS011;58633;49.470;11.004;2023-04-21T13:18:12;3.38;;;2.38;;
6823;SDS011;58633;49.470;11.004;2023-04-21T13:20:38;4.30;;;2.45;;
6823;SDS011;58633;49.470;11.004;2023-04-21T13:23:04;2.13;;;1.95;;
6823;SDS011;58633;49.470;11.004;2023-04-21T13:25:29;4.55;;;2.38;;
6823;SDS011;58633;49.470;11.004;2023-04-21T13:27:56;2.08;;;1.88;;
6823;SDS011;58633;49.470;11.004;2023-04-21T13:30:22;3.55;;;1.92;;
6823;SDS011;58633;49.470;11.004;2023-04-21T13:32:48;2.15;;;1.95;;
6823;SDS011;58633;49.470;11.004;2023-04-21T13:35:16;3.33;;;2.30;;
6823;SDS011;58633;49.470;11.004;2023-04-21T13:37:42;3.42;;;2.33;;
6823;SDS011;58633;49.470;11.004;2023-04-21T13:40:08;3.92;;;2.40;;
6823;SDS011;58633;49.470;11.004;2023-04-21T13:42:35;3.38;;;2.10;;
6823;SDS011;58633;49.470;11.004;2023-04-21T13:45:00;5.28;;;2.15;;
6823;SDS011;58633;49.470;11.004;2023-04-21T13:47:28;2.00;;;1.90;;
6823;SDS011;58633;49.470;11.004;2023-04-21T13:49:57;2.35;;;1.70;;
6823;SDS011;58633;49.470;11.004;2023-04-21T13:52:23;2.10;;;2.00;;
6823;SDS011;58633;49.470;11.004;2023-04-21T13:54:50;2.00;;;1.90;;
6823;SDS011;58633;49.470;11.004;2023-04-21T13:57:17;3.67;;;1.90;;
6823;SDS011;58633;49.470;11.004;2023-04-21T13:59:42;2.20;;;2.10;;
6823;SDS011;58633;49.470;11.004;2023-04-21T14:02:08;2.40;;;2.28;;
6823;SDS011;58633;49.470;11.004;2023-04-21T14:04:33;2.65;;;2.00;;
6823;SDS011;58633;49.470;11.004;2023-04-21T14:07:00;3.30;;;1.80;;
6823;SDS011;58633;49.470;11.004;2023-04-21T14:09:26;1.90;;;1.70;;
6823;SDS011;58633;49.470;11.004;2023-04-21T14:11:52;2.00;;;1.90;;
6823;SDS011;58633;49.470;11.004;2023-04-21T14:14:18;1.98;;;1.88;;
6823;SDS011;58633;49.470;11.004;2023-04-21T14:16:43;3.33;;;1.80;;
6823;SDS011;58633;49.470;11.004;2023-04-21T14:19:12;1.85;;;1.75;;
6823;SDS011;58633;49.470;11.004;2023-04-21T14:21:39;2.60;;;1.88;;
6823;SDS011;58633;49.470;11.004;2023-04-21T14:24:05;5.18;;;2.10;;
6823;SDS011;58633;49.470;11.004;2023-04-21T14:26:30;1.85;;;1.75;;
6823;SDS011;58633;49.470;11.004;2023-04-21T14:28:56;2.42;;;1.95;;
6823;SDS011;58633;49.470;11.004;2023-04-21T14:31:23;1.70;;;1.60;;
6823;SDS011;58633;49.470;11.004;2023-04-21T14:33:49;1.60;;;1.50;;
6823;SDS011;58633;49.470;11.004;2023-04-21T14:36:14;1.98;;;1.60;;
6823;SDS011;58633;49.470;11.004;2023-04-21T14:38:40;1.90;;;1.45;;